createdAt,value
2019-05-30T00:01:28.443Z,13.80
2019-05-30T00:03:58.807Z,13.73
2019-05-30T00:06:27.086Z,13.70
2019-05-30T00:08:56.308Z,13.67
2019-05-30T00:11:24.908Z,13.65
2019-05-30T00:13:54.588Z,13.63
2019-05-30T00:16:23.508Z,13.62
2019-05-30T00:18:52.301Z,13.60
2019-05-30T00:21:20.762Z,13.59
2019-05-30T00:23:49.242Z,13.53
2019-05-30T00:26:17.643Z,13.55
2019-05-30T00:28:46.166Z,13.48
2019-05-30T00:31:14.913Z,13.44
2019-05-30T00:33:43.317Z,13.42
2019-05-30T00:36:11.773Z,13.41
2019-05-30T00:38:40.194Z,13.38
2019-05-30T00:41:08.644Z,13.39
2019-05-30T00:43:37.094Z,13.38
2019-05-30T00:46:06.273Z,13.35
2019-05-30T00:48:34.717Z,13.32
2019-05-30T00:51:04.295Z,13.31
2019-05-30T00:53:33.028Z,13.26
2019-05-30T00:56:03.120Z,13.23
2019-05-30T00:58:31.642Z,13.21
2019-05-30T01:01:01.025Z,13.24
2019-05-30T01:03:29.651Z,13.24
2019-05-30T01:05:58.735Z,13.24
2019-05-30T01:08:27.313Z,13.15
2019-05-30T01:10:56.883Z,13.19
2019-05-30T01:13:25.433Z,13.17
2019-05-30T01:15:53.957Z,13.10
2019-05-30T01:18:22.430Z,13.10
2019-05-30T01:20:51.202Z,13.07
2019-05-30T01:23:19.921Z,13.06
2019-05-30T01:25:48.457Z,13.03
2019-05-30T01:28:16.835Z,13.00
2019-05-30T01:30:59.085Z,13.00
2019-05-30T01:33:15.768Z,12.99
2019-05-30T01:35:44.181Z,12.97
2019-05-30T01:38:12.631Z,12.97
2019-05-30T01:40:41.035Z,12.96
2019-05-30T01:43:09.417Z,12.97
2019-05-30T01:45:37.871Z,12.86
2019-05-30T01:48:06.674Z,12.86
2019-05-30T01:50:35.149Z,12.88
2019-05-30T01:53:04.652Z,12.79
2019-05-30T01:55:33.351Z,12.76
2019-05-30T01:58:03.247Z,12.76
2019-05-30T02:00:39.579Z,12.66
2019-05-30T02:03:09.639Z,12.65
2019-05-30T02:05:39.079Z,12.58
2019-05-30T02:08:09.874Z,12.58
2019-05-30T02:10:38.684Z,12.57
2019-05-30T02:13:07.559Z,12.55
2019-05-30T02:15:36.174Z,12.54
2019-05-30T02:18:05.765Z,12.48
2019-05-30T02:20:34.343Z,12.40
2019-05-30T02:23:05.495Z,12.44
2019-05-30T02:25:33.320Z,12.40
2019-05-30T02:28:02.100Z,12.39
2019-05-30T02:30:30.722Z,12.37
2019-05-30T02:33:00.651Z,12.35
2019-05-30T02:35:29.239Z,12.33
2019-05-30T02:37:57.944Z,12.31
2019-05-30T02:40:26.652Z,12.25
2019-05-30T02:42:55.518Z,12.18
2019-05-30T02:45:23.960Z,12.07
2019-05-30T02:47:52.387Z,12.01
2019-05-30T02:50:21.467Z,11.97
2019-05-30T02:52:49.914Z,12.00
2019-05-30T02:55:18.664Z,11.95
2019-05-30T02:57:47.429Z,11.94
2019-05-30T03:00:17.941Z,11.90
2019-05-30T03:02:46.499Z,11.93
2019-05-30T03:05:15.432Z,11.90
2019-05-30T03:07:44.269Z,11.86
2019-05-30T03:10:15.083Z,11.86
2019-05-30T03:12:43.723Z,11.85
2019-05-30T03:15:15.249Z,11.90
2019-05-30T03:17:42.766Z,11.82
2019-05-30T03:20:21.133Z,11.80
2019-05-30T03:22:41.786Z,11.82
2019-05-30T03:25:13.144Z,11.81
2019-05-30T03:27:40.535Z,11.78
2019-05-30T03:30:18.247Z,11.78
2019-05-30T03:33:03.483Z,11.77
2019-05-30T03:35:22.341Z,11.73
2019-05-30T03:37:40.227Z,11.74
2019-05-30T03:40:09.036Z,11.67
2019-05-30T03:42:37.487Z,11.65
2019-05-30T03:45:10.745Z,11.50
2019-05-30T03:47:39.306Z,11.50
2019-05-30T03:50:11.694Z,11.40
2019-05-30T03:52:39.220Z,11.32
2019-05-30T03:55:09.940Z,11.39
2019-05-30T03:57:44.594Z,11.38
2019-05-30T04:00:40.877Z,11.43
2019-05-30T04:03:36.344Z,11.55
2019-05-30T04:06:10.173Z,11.55
2019-05-30T04:08:39.026Z,11.47
2019-05-30T04:11:10.387Z,11.44
2019-05-30T04:13:42.470Z,11.43
2019-05-30T04:16:11.229Z,11.52
2019-05-30T04:18:40.411Z,11.56
2019-05-30T04:21:10.848Z,11.61
2019-05-30T04:23:38.978Z,11.58
2019-05-30T04:26:07.554Z,11.62
2019-05-30T04:28:36.071Z,11.66
2019-05-30T04:31:04.543Z,11.65
2019-05-30T04:33:33.941Z,11.70
2019-05-30T04:36:02.575Z,11.76
2019-05-30T04:38:31.037Z,11.81
2019-05-30T04:40:59.785Z,11.81
2019-05-30T04:43:28.199Z,11.69
2019-05-30T04:45:56.558Z,11.74
2019-05-30T04:48:25.061Z,11.82
2019-05-30T04:50:53.513Z,11.85
2019-05-30T04:53:22.069Z,11.86
2019-05-30T04:55:50.438Z,11.86
2019-05-30T04:58:23.335Z,11.95
2019-05-30T05:00:49.129Z,11.99
2019-05-30T05:03:37.019Z,12.05
2019-05-30T05:05:47.917Z,12.10
2019-05-30T05:08:17.930Z,12.01
2019-05-30T05:10:46.601Z,12.21
2019-05-30T05:13:16.294Z,12.02
2019-05-30T05:15:44.836Z,11.93
2019-05-30T05:18:14.780Z,11.75
2019-05-30T05:20:43.872Z,12.02
2019-05-30T05:23:13.070Z,12.19
2019-05-30T05:25:41.701Z,11.98
2019-05-30T05:28:10.082Z,12.13
2019-05-30T05:30:38.747Z,12.20
2019-05-30T05:33:07.172Z,12.25
2019-05-30T05:35:35.895Z,12.27
2019-05-30T05:38:04.399Z,12.36
2019-05-30T05:40:33.285Z,12.27
2019-05-30T05:43:01.695Z,12.40
2019-05-30T05:45:30.543Z,12.31
2019-05-30T05:47:58.956Z,12.57
2019-05-30T05:50:28.703Z,12.67
2019-05-30T05:52:57.190Z,12.65
2019-05-30T05:55:25.706Z,12.69
2019-05-30T05:57:54.111Z,12.77
2019-05-30T06:00:23.284Z,12.91
2019-05-30T06:02:51.942Z,12.95
2019-05-30T06:05:20.537Z,12.98
2019-05-30T06:07:48.958Z,13.01
2019-05-30T06:10:19.471Z,13.03
2019-05-30T06:12:48.115Z,13.14
2019-05-30T06:15:16.913Z,13.13
2019-05-30T06:17:45.265Z,13.10
2019-05-30T06:20:13.955Z,13.20
2019-05-30T06:22:42.439Z,13.31
2019-05-30T06:25:11.024Z,13.31
2019-05-30T06:27:39.413Z,13.40
2019-05-30T06:30:08.775Z,13.46
2019-05-30T06:32:37.211Z,13.64
2019-05-30T06:35:09.101Z,13.74
2019-05-30T06:37:37.548Z,13.71
2019-05-30T06:40:07.934Z,13.92
2019-05-30T06:42:36.694Z,14.21
2019-05-30T06:45:10.409Z,14.64
2019-05-30T06:47:39.206Z,14.96
2019-05-30T06:50:07.951Z,15.23
2019-05-30T06:52:36.537Z,14.99
2019-05-30T06:55:06.776Z,15.02
2019-05-30T06:57:35.217Z,15.30
2019-05-30T07:00:06.297Z,15.37
2019-05-30T07:02:34.768Z,15.75
2019-05-30T07:05:04.105Z,16.10
2019-05-30T07:07:33.503Z,16.62
2019-05-30T07:10:02.333Z,17.16
2019-05-30T07:12:31.162Z,17.56
2019-05-30T07:14:59.714Z,17.66
2019-05-30T07:17:29.437Z,17.93
2019-05-30T07:19:58.001Z,18.23
2019-05-30T07:22:27.646Z,18.38
2019-05-30T07:24:56.167Z,19.06
2019-05-30T07:27:25.574Z,19.20
2019-05-30T07:29:54.640Z,19.36
2019-05-30T07:32:24.033Z,19.42
2019-05-30T07:35:05.534Z,19.69
2019-05-30T07:37:24.378Z,20.10
2019-05-30T07:39:53.198Z,19.90
2019-05-30T07:42:21.820Z,20.04
2019-05-30T07:44:50.628Z,19.68
2019-05-30T07:47:19.143Z,18.90
2019-05-30T07:49:47.554Z,17.92
2019-05-30T07:52:16.065Z,17.89
2019-05-30T07:54:44.530Z,18.22
2019-05-30T07:57:12.912Z,17.88
2019-05-30T07:59:41.404Z,18.18
2019-05-30T08:02:10.250Z,18.60
2019-05-30T08:04:38.780Z,18.58
2019-05-30T08:07:07.178Z,18.53
2019-05-30T08:09:35.623Z,19.18
2019-05-30T08:12:04.205Z,19.06
2019-05-30T08:14:33.294Z,19.22
2019-05-30T08:17:01.765Z,19.49
2019-05-30T08:19:30.211Z,19.67
2019-05-30T08:21:58.602Z,19.92
2019-05-30T08:24:28.079Z,19.15
2019-05-30T08:26:56.677Z,19.72
2019-05-30T08:29:25.136Z,20.04
2019-05-30T08:31:53.590Z,20.22
2019-05-30T08:34:22.371Z,20.83
2019-05-30T08:36:51.084Z,20.48
2019-05-30T08:39:19.738Z,20.53
2019-05-30T08:41:48.292Z,20.19
2019-05-30T08:44:16.846Z,20.57
2019-05-30T08:46:45.294Z,20.20
2019-05-30T08:49:13.843Z,20.27
2019-05-30T08:51:42.558Z,20.97
2019-05-30T08:54:13.615Z,20.99
2019-05-30T08:56:41.223Z,21.45
2019-05-30T08:59:10.070Z,21.18
2019-05-30T09:01:40.337Z,21.43
2019-05-30T09:04:08.707Z,21.18
2019-05-30T09:06:37.850Z,21.70
2019-05-30T09:09:07.977Z,21.12
2019-05-30T09:11:37.661Z,21.09
2019-05-30T09:14:06.771Z,21.11
2019-05-30T09:16:35.458Z,21.50
2019-05-30T09:19:04.367Z,20.86
2019-05-30T09:21:32.895Z,20.68
2019-05-30T09:24:01.828Z,20.45
2019-05-30T09:26:30.387Z,20.50
2019-05-30T09:28:58.764Z,21.23
2019-05-30T09:31:27.193Z,20.92
2019-05-30T09:33:55.564Z,20.64
2019-05-30T09:36:24.017Z,20.07
2019-05-30T09:38:52.530Z,19.91
2019-05-30T09:41:20.923Z,19.39
2019-05-30T09:43:50.250Z,19.42
2019-05-30T09:46:19.001Z,19.51
2019-05-30T09:48:48.631Z,19.32
2019-05-30T09:51:17.218Z,19.04
2019-05-30T09:53:46.015Z,19.33
2019-05-30T09:56:14.522Z,19.51
2019-05-30T09:58:43.974Z,19.30
2019-05-30T10:01:13.070Z,19.43
2019-05-30T10:03:43.068Z,19.38
2019-05-30T10:06:28.192Z,19.36
2019-05-30T10:08:42.474Z,19.61
2019-05-30T10:11:15.995Z,19.64
2019-05-30T10:13:43.997Z,19.88
2019-05-30T10:16:13.184Z,19.82
2019-05-30T10:18:41.639Z,19.99
2019-05-30T10:21:10.111Z,19.93
2019-05-30T10:23:38.548Z,19.95
2019-05-30T10:26:07.041Z,20.00
2019-05-30T10:28:35.494Z,20.09
2019-05-30T10:31:04.179Z,20.13
2019-05-30T10:33:33.077Z,20.11
2019-05-30T10:36:01.555Z,20.28
2019-05-30T10:38:29.991Z,20.54
2019-05-30T10:40:58.454Z,20.88
2019-05-30T10:43:26.895Z,21.10
2019-05-30T10:45:55.584Z,20.93
2019-05-30T10:48:24.106Z,21.55
2019-05-30T10:50:52.823Z,22.18
2019-05-30T10:53:21.296Z,22.61
2019-05-30T10:55:50.112Z,21.69
2019-05-30T10:58:19.126Z,20.99
2019-05-30T11:00:53.103Z,21.08
2019-05-30T11:03:22.949Z,20.83
2019-05-30T11:05:57.221Z,21.02
2019-05-30T11:08:27.445Z,20.79
2019-05-30T11:10:56.825Z,20.89
2019-05-30T11:13:25.485Z,20.98
2019-05-30T11:15:55.509Z,20.75
2019-05-30T11:18:24.119Z,20.79
2019-05-30T11:20:53.983Z,20.89
2019-05-30T11:23:22.894Z,21.19
2019-05-30T11:25:52.519Z,21.28
2019-05-30T11:28:21.206Z,21.33
2019-05-30T11:30:50.602Z,21.52
2019-05-30T11:33:19.254Z,21.53
2019-05-30T11:35:48.885Z,21.67
2019-05-30T11:38:17.778Z,22.22
2019-05-30T11:40:46.181Z,22.21
2019-05-30T11:43:14.561Z,22.60
2019-05-30T11:45:42.956Z,22.39
2019-05-30T11:48:11.396Z,22.31
2019-05-30T11:50:39.800Z,22.26
2019-05-30T11:53:08.260Z,22.51
2019-05-30T11:55:36.961Z,22.59
2019-05-30T11:58:05.402Z,22.94
2019-05-30T12:00:34.103Z,23.45
2019-05-30T12:03:02.634Z,24.41
2019-05-30T12:05:31.200Z,25.37
2019-05-30T12:08:00.976Z,27.44
2019-05-30T12:10:29.996Z,27.99
2019-05-30T12:12:59.419Z,28.06
2019-05-30T12:15:28.182Z,27.93
2019-05-30T12:17:57.473Z,29.39
2019-05-30T12:20:26.288Z,28.33
2019-05-30T12:22:55.825Z,29.70
2019-05-30T12:25:24.548Z,30.48
2019-05-30T12:27:53.959Z,31.65
2019-05-30T12:30:22.715Z,29.37
2019-05-30T12:32:52.360Z,28.43
2019-05-30T12:35:21.313Z,31.66
2019-05-30T12:37:56.226Z,34.48
2019-05-30T12:40:20.154Z,34.86
2019-05-30T12:42:48.599Z,34.47
2019-05-30T12:45:17.577Z,32.52
2019-05-30T12:47:46.092Z,33.60
2019-05-30T12:50:16.969Z,31.69
2019-05-30T12:52:45.407Z,31.50
2019-05-30T12:55:14.243Z,33.03
2019-05-30T12:57:42.831Z,30.00
2019-05-30T13:00:19.210Z,31.01
2019-05-30T13:02:47.804Z,32.13
2019-05-30T13:05:16.981Z,34.17
2019-05-30T13:07:45.437Z,34.54
2019-05-30T13:10:14.001Z,33.97
2019-05-30T13:12:42.407Z,33.07
2019-05-30T13:15:11.425Z,31.93
2019-05-30T13:17:39.950Z,31.94
2019-05-30T13:20:10.257Z,33.30
2019-05-30T13:22:39.454Z,32.17
2019-05-30T13:25:09.784Z,33.41
2019-05-30T13:27:38.223Z,33.06
2019-05-30T13:30:08.549Z,30.69
2019-05-30T13:32:36.998Z,28.15
2019-05-30T13:35:07.644Z,29.87
2019-05-30T13:37:36.172Z,31.43
2019-05-30T13:40:24.390Z,30.57
2019-05-30T13:42:40.537Z,31.42
2019-05-30T13:45:10.932Z,33.76
2019-05-30T13:47:39.555Z,35.33
2019-05-30T13:50:12.976Z,34.49
2019-05-30T13:52:39.677Z,32.66
2019-05-30T13:55:10.103Z,31.97
2019-05-30T13:57:38.974Z,31.55
2019-05-30T14:00:10.439Z,30.30
2019-05-30T14:02:39.824Z,29.53
2019-05-30T14:05:08.677Z,31.04
2019-05-30T14:07:37.061Z,30.34
2019-05-30T14:10:07.089Z,30.31
2019-05-30T14:12:35.910Z,29.91
2019-05-30T14:15:11.917Z,27.94
2019-05-30T14:17:39.563Z,28.03
2019-05-30T14:20:09.041Z,27.19
2019-05-30T14:22:37.632Z,25.35
2019-05-30T14:25:07.831Z,24.92
2019-05-30T14:27:36.741Z,25.06
2019-05-30T14:30:10.844Z,24.72
2019-05-30T14:32:39.521Z,24.50
2019-05-30T14:35:11.701Z,25.27
2019-05-30T14:37:39.570Z,24.67
2019-05-30T14:40:13.095Z,24.69
2019-05-30T14:42:41.803Z,24.73
2019-05-30T14:45:14.545Z,24.36
2019-05-30T14:47:43.617Z,24.52
2019-05-30T14:50:14.339Z,24.38
2019-05-30T14:52:42.795Z,23.87
2019-05-30T14:55:13.370Z,23.75
2019-05-30T14:57:42.295Z,23.68
2019-05-30T15:00:17.681Z,23.51
2019-05-30T15:02:46.300Z,23.22
2019-05-30T15:05:15.973Z,23.22
2019-05-30T15:07:44.618Z,23.20
2019-05-30T15:10:15.041Z,23.27
2019-05-30T15:12:43.492Z,23.34
2019-05-30T15:15:16.613Z,23.21
2019-05-30T15:17:44.466Z,22.96
2019-05-30T15:20:13.844Z,23.19
2019-05-30T15:22:42.776Z,23.42
2019-05-30T15:25:12.071Z,23.04
2019-05-30T15:27:40.970Z,23.01
2019-05-30T15:30:12.480Z,23.03
2019-05-30T15:32:41.297Z,22.97
2019-05-30T15:35:10.967Z,22.84
2019-05-30T15:37:40.930Z,22.81
2019-05-30T15:40:11.178Z,22.80
2019-05-30T15:42:39.958Z,22.66
2019-05-30T15:45:12.041Z,22.63
2019-05-30T15:47:40.820Z,22.42
2019-05-30T15:50:11.245Z,22.45
2019-05-30T15:52:39.761Z,22.56
2019-05-30T15:55:09.595Z,22.52
2019-05-30T15:57:38.028Z,22.51
2019-05-30T16:00:08.149Z,22.57
2019-05-30T16:02:36.659Z,22.67
2019-05-30T16:05:07.153Z,22.56
2019-05-30T16:07:35.938Z,22.66
2019-05-30T16:10:06.623Z,22.52
2019-05-30T16:12:35.143Z,22.39
2019-05-30T16:15:04.774Z,22.36
2019-05-30T16:17:33.380Z,22.24
2019-05-30T16:20:02.142Z,22.16
2019-05-30T16:22:30.623Z,22.28
2019-05-30T16:24:59.411Z,22.26
2019-05-30T16:27:31.011Z,22.21
2019-05-30T16:29:58.031Z,22.33
2019-05-30T16:32:26.515Z,22.27
2019-05-30T16:34:54.971Z,22.29
2019-05-30T16:37:23.423Z,22.18
2019-05-30T16:40:05.108Z,22.12
2019-05-30T16:42:22.360Z,22.08
2019-05-30T16:44:51.482Z,22.10
2019-05-30T16:47:20.503Z,22.04
2019-05-30T16:49:48.992Z,22.13
2019-05-30T16:52:17.372Z,22.22
2019-05-30T16:54:45.822Z,22.07
2019-05-30T16:57:14.613Z,22.23
2019-05-30T16:59:43.133Z,22.13
2019-05-30T17:02:11.543Z,22.08
2019-05-30T17:04:40.003Z,22.06
2019-05-30T17:07:08.390Z,22.02
2019-05-30T17:09:36.918Z,21.99
2019-05-30T17:12:05.693Z,22.03
2019-05-30T17:14:34.180Z,22.08
2019-05-30T17:17:03.140Z,22.39
2019-05-30T17:19:31.737Z,22.17
2019-05-30T17:22:00.116Z,22.26
2019-05-30T17:24:28.571Z,22.27
2019-05-30T17:26:56.984Z,21.94
2019-05-30T17:29:25.750Z,21.75
2019-05-30T17:31:54.333Z,21.65
2019-05-30T17:34:23.966Z,21.64
2019-05-30T17:36:52.566Z,21.68
2019-05-30T17:39:20.967Z,21.74
2019-05-30T17:41:49.519Z,21.67
2019-05-30T17:44:19.083Z,21.63
2019-05-30T17:46:47.516Z,21.58
2019-05-30T17:49:17.452Z,21.62
2019-05-30T17:51:45.832Z,21.61
2019-05-30T17:54:14.325Z,21.62
2019-05-30T17:56:42.707Z,21.51
2019-05-30T17:59:11.185Z,21.52
2019-05-30T18:01:39.663Z,21.35
2019-05-30T18:04:08.153Z,21.19
2019-05-30T18:06:36.727Z,21.19
2019-05-30T18:09:07.391Z,21.13
2019-05-30T18:11:35.889Z,21.09
2019-05-30T18:14:04.421Z,21.06
2019-05-30T18:16:33.043Z,20.91
2019-05-30T18:19:01.427Z,21.08
2019-05-30T18:21:29.908Z,21.03
2019-05-30T18:23:58.358Z,20.89
2019-05-30T18:26:27.530Z,20.87
2019-05-30T18:28:56.128Z,20.89
2019-05-30T18:31:25.811Z,20.84
2019-05-30T18:33:54.422Z,20.85
2019-05-30T18:36:24.239Z,20.77
2019-05-30T18:38:52.796Z,20.65
2019-05-30T18:41:22.661Z,20.74
2019-05-30T18:43:51.258Z,20.77
2019-05-30T18:46:19.676Z,20.78
2019-05-30T18:48:48.165Z,20.75
2019-05-30T18:51:16.565Z,20.75
2019-05-30T18:53:45.063Z,20.69
2019-05-30T18:56:13.848Z,20.62
2019-05-30T18:58:42.422Z,20.53
2019-05-30T19:01:11.055Z,20.48
2019-05-30T19:03:39.525Z,20.53
2019-05-30T19:06:08.037Z,20.53
2019-05-30T19:08:36.595Z,20.37
2019-05-30T19:11:05.220Z,20.38
2019-05-30T19:13:33.622Z,20.41
2019-05-30T19:16:02.407Z,20.34
2019-05-30T19:18:31.620Z,20.19
2019-05-30T19:21:00.090Z,20.07
2019-05-30T19:23:30.030Z,20.08
2019-05-30T19:25:58.622Z,20.18
2019-05-30T19:28:27.019Z,20.21
2019-05-30T19:30:55.763Z,20.00
2019-05-30T19:33:24.147Z,20.05
2019-05-30T19:35:53.038Z,20.17
2019-05-30T19:38:21.723Z,20.17
2019-05-30T19:40:50.187Z,20.11
2019-05-30T19:43:18.560Z,20.12
2019-05-30T19:45:47.051Z,20.15
2019-05-30T19:48:15.507Z,19.95
2019-05-30T19:50:43.967Z,19.91
2019-05-30T19:53:12.922Z,19.90
2019-05-30T19:55:41.435Z,19.81
2019-05-30T19:58:09.927Z,19.85
2019-05-30T20:00:56.715Z,19.79
2019-05-30T20:03:09.730Z,19.81
2019-05-30T20:05:38.876Z,19.86
2019-05-30T20:08:07.514Z,19.83
2019-05-30T20:10:37.117Z,19.86
2019-05-30T20:13:05.847Z,19.73
2019-05-30T20:15:35.457Z,19.63
2019-05-30T20:18:04.404Z,19.76
2019-05-30T20:20:49.326Z,19.81
2019-05-30T20:23:03.413Z,19.83
2019-05-30T20:25:32.624Z,19.85
2019-05-30T20:28:01.162Z,19.78
2019-05-30T20:30:29.576Z,19.65
2019-05-30T20:32:58.067Z,19.56
2019-05-30T20:35:26.583Z,19.43
2019-05-30T20:37:54.984Z,19.31
2019-05-30T20:40:23.812Z,19.26
2019-05-30T20:42:52.219Z,19.28
2019-05-30T20:45:20.757Z,19.27
2019-05-30T20:47:49.167Z,19.26
2019-05-30T20:50:18.157Z,19.33
2019-05-30T20:52:47.617Z,19.23
2019-05-30T20:55:16.497Z,19.30
2019-05-30T20:57:45.010Z,19.05
2019-05-30T21:00:15.335Z,19.00
2019-05-30T21:02:43.903Z,18.97
2019-05-30T21:05:12.386Z,18.84
2019-05-30T21:07:44.239Z,18.81
2019-05-30T21:10:13.374Z,18.74
2019-05-30T21:12:49.014Z,18.68
2019-05-30T21:15:14.472Z,18.64
2019-05-30T21:17:46.083Z,18.66
2019-05-30T21:20:15.089Z,18.59
2019-05-30T21:22:44.710Z,18.60
2019-05-30T21:25:13.356Z,18.57
2019-05-30T21:27:43.062Z,18.53
2019-05-30T21:30:11.779Z,18.51
2019-05-30T21:32:41.711Z,18.43
2019-05-30T21:35:10.717Z,18.41
2019-05-30T21:37:39.666Z,18.53
2019-05-30T21:40:08.606Z,18.51
2019-05-30T21:42:51.490Z,18.51
2019-05-30T21:45:08.937Z,18.53
2019-05-30T21:47:38.628Z,18.60
2019-05-30T21:50:07.984Z,18.68
2019-05-30T21:52:36.436Z,18.63
2019-05-30T21:55:06.186Z,18.58
2019-05-30T21:57:34.661Z,18.42
2019-05-30T22:00:04.962Z,18.36
2019-05-30T22:02:33.600Z,18.41
2019-05-30T22:05:02.266Z,18.37
2019-05-30T22:07:30.840Z,18.32
2019-05-30T22:10:01.630Z,18.27
2019-05-30T22:12:30.118Z,18.20
2019-05-30T22:14:58.973Z,18.16
2019-05-30T22:17:28.026Z,18.08
2019-05-30T22:19:56.704Z,18.13
2019-05-30T22:22:25.489Z,17.98
2019-05-30T22:24:54.278Z,17.92
2019-05-30T22:27:23.067Z,17.94
2019-05-30T22:29:52.646Z,17.91
2019-05-30T22:32:21.205Z,17.76
2019-05-30T22:34:50.843Z,17.79
2019-05-30T22:37:19.317Z,17.77
2019-05-30T22:39:48.950Z,17.69
2019-05-30T22:42:17.974Z,17.66
2019-05-30T22:44:46.393Z,17.65
2019-05-30T22:47:14.798Z,17.80
2019-05-30T22:49:44.643Z,17.75
2019-05-30T22:52:13.623Z,17.65
2019-05-30T22:54:42.005Z,17.74
2019-05-30T22:57:10.463Z,17.70
2019-05-30T22:59:38.915Z,17.69
2019-05-30T23:02:07.379Z,17.64
2019-05-30T23:04:35.883Z,17.58
2019-05-30T23:07:04.326Z,17.61
2019-05-30T23:09:32.766Z,17.63
2019-05-30T23:12:01.264Z,17.67
2019-05-30T23:14:29.628Z,17.69
2019-05-30T23:16:58.049Z,17.66
2019-05-30T23:19:26.434Z,17.53
2019-05-30T23:21:55.136Z,17.49
2019-05-30T23:24:23.674Z,17.40
2019-05-30T23:26:52.222Z,17.28
2019-05-30T23:29:20.610Z,17.24
2019-05-30T23:31:49.915Z,17.37
2019-05-30T23:34:18.399Z,17.39
2019-05-30T23:36:46.781Z,17.41
2019-05-30T23:39:15.183Z,17.37
2019-05-30T23:41:43.645Z,17.34
2019-05-30T23:44:12.271Z,17.35
2019-05-30T23:46:40.683Z,17.31
2019-05-30T23:49:09.438Z,17.35
2019-05-30T23:51:38.123Z,17.29
2019-05-30T23:54:06.566Z,17.37
2019-05-30T23:56:34.946Z,17.38
2019-05-30T23:59:03.466Z,17.46
